Nearby METAR Reports

 

KCOS - Colorado Springs, Colorado, USA
Distance from station: S 6mi, 9km
Updated: 12/18/2018 3:54pm
Few Clouds
Few Clouds
 Wind from SSE
Wind: SSE 13 mph , 20 km/h
Temperature: 52°F , 11°C
Dew Point: 18°F , -8°C
Humidity: 26%
Barometer: 29.90 inHg , 1012.5 hPa
Clouds: Few Clouds
Visibility: 10 miles , 16 km
Cloud details: Few Clouds 18000 ft
Few Clouds 25000 ft
2018/12/18 22:54 KCOS 182254Z 15011KT 10SM FEW180 FEW250 11/M08 A2990 RMK AO2 SLP109 T01061078
KAFF - Usaf Academy/Cos, Colorado, USA
Distance from station: NW 7mi, 12km
Updated: 12/18/2018 3:58pm
Clear
Clear
 Wind from S
Wind: S 8 mph , 13 km/h
Temperature: 50°F , 10°C
Wind Chill: 47°F , 8°C
Dew Point: 16°F , -9°C
Humidity: 25%
Barometer: 29.90 inHg , 1012.5 hPa
Clouds: Clear
Visibility: 10 miles , 16 km
2018/12/18 22:58 KAFF 182258Z AUTO 18007KT 10SM CLR 10/M09 A2990 RMK AO2 SLP112 T00981088
 
KFLY - Co Spngs Meadow, Colorado, USA
Distance from station: ENE 8mi, 13km
Updated: 12/18/2018 3:55pm
Clear
Clear
 Wind from S
Wind: S 8 mph , 13 km/h
Temperature: 46°F , 8°C
Wind Chill: 42°F , 6°C
Dew Point: 16°F , -9°C
Humidity: 29%
Barometer: 29.93 inHg , 1013.5 hPa
Clouds: Clear
Visibility: 10 miles , 16 km
2018/12/18 22:55 KFLY 182255Z AUTO 17007KT 10SM CLR 08/M09 A2993 RMK AO2 T00801094
KFCS - Fort Carson, Colorado, USA
Distance from station: S 17mi, 27km
Updated: 12/18/2018 2:58pm
Clear
Clear
 Wind from S
Wind: S 15 mph , 24 km/h
Temperature: 55°F , 13°C
Dew Point: 18°F , -8°C
Humidity: 23%
Barometer: 29.88 inHg , 1011.9 hPa
Clouds: Clear
Visibility: 10 miles , 16 km
2018/12/18 21:58 KFCS 182158Z AUTO 18013KT 10SM CLR 13/M08 A2988 RMK AO2 SLP118 T01301082 $
 
KMNH - Monument/Elbert, Colorado, USA
Distance from station: N 22mi, 35km
Updated: 12/18/2018 3:48pm
Clear
Clear
 Wind from calm
Wind: Calm
Temperature: 45°F , 7°C
Dew Point: 18°F , -8°C
Humidity: 34%
Barometer: 29.93 inHg , 1013.5 hPa
Clouds: Clear
Visibility: 10 miles , 16 km
2018/12/18 22:48 KMNH 182248Z AUTO 00000KT 10SM CLR 07/M08 A2993 RMK AO2
K1V6 - Canon City, Colorado, USA
Distance from station: SSW 39mi, 62km
Updated: 12/18/2018 3:50pm
Clear
Clear
 Wind from SSE
Wind: SSE 15 mph , 24 km/h
Temperature: 57°F , 14°C
Dew Point: 23°F , -5°C
Humidity: 27%
Barometer: 29.87 inHg , 1011.5 hPa
Clouds: Clear
Visibility: 10 miles , 16 km
2018/12/18 22:50 K1V6 182250Z AUTO 16013KT 10SM CLR 14/M05 A2987 RMK AO2
 
KPUB - Pueblo, Colorado, USA
Distance from station: SSE 44mi, 71km
Updated: 12/18/2018 3:53pm
Clear
Clear
 Wind from SSE
Wind: SSE 13 mph , 20 km/h
Temperature: 57°F , 14°C
Dew Point: 19°F , -7°C
Humidity: 23%
Barometer: 29.87 inHg , 1011.5 hPa
Clouds: Clear
Visibility: 10 miles , 16 km
2018/12/18 22:53 KPUB 182253Z 15011KT 10SM CLR 14/M07 A2987 RMK AO2 SLP093 T01391067
KAPA - Denver/Arapahoe, Colorado, USA
Distance from station: N 47mi, 75km
Updated: 12/18/2018 3:53pm
Few Clouds
Few Clouds
 Wind from N
Wind: N 7 mph , 11 km/h
Temperature: 54°F , 12°C
Dew Point: 19°F , -7°C
Humidity: 26%
Barometer: 29.88 inHg , 1011.9 hPa
Clouds: Few Clouds
Visibility: 10 miles , 16 km
Cloud details: Few Clouds 8000 ft
Few Clouds 22000 ft
2018/12/18 22:53 KAPA 182253Z 01006KT 10SM FEW080 FEW220 12/M07 A2988 RMK AO2 SLP108 T01171072